createdAt,value
2022-12-22T00:02:21.810Z,98190.13
2022-12-22T00:05:08.481Z,98184.09
2022-12-22T00:07:53.852Z,98186.78
2022-12-22T00:10:39.849Z,98167.44
2022-12-22T00:13:30.575Z,98179.63
2022-12-22T00:16:16.045Z,98179.75
2022-12-22T00:19:01.747Z,98191.63
2022-12-22T00:21:49.753Z,98181.66
2022-12-22T00:24:34.996Z,98189.66
2022-12-22T00:27:20.344Z,98193.00
2022-12-22T00:30:06.251Z,98183.31
2022-12-22T00:32:55.644Z,98185.81
2022-12-22T00:35:44.334Z,98189.19
2022-12-22T00:38:38.691Z,98197.00
2022-12-22T00:41:24.551Z,98197.47
2022-12-22T00:44:10.314Z,98201.50
2022-12-22T00:46:59.487Z,98183.31
2022-12-22T00:49:47.202Z,98189.97
2022-12-22T00:52:33.538Z,98206.03
2022-12-22T00:55:19.294Z,98203.97
2022-12-22T00:58:04.839Z,98198.50
2022-12-22T01:00:50.210Z,98199.31
2022-12-22T01:03:35.755Z,98195.66
2022-12-22T01:06:22.134Z,98193.31
2022-12-22T01:09:07.539Z,98179.34
2022-12-22T01:11:53.648Z,98181.19
2022-12-22T01:14:38.985Z,98183.19
2022-12-22T01:17:24.635Z,98180.38
2022-12-22T01:20:10.132Z,98190.06
2022-12-22T01:22:55.681Z,98201.41
2022-12-22T01:25:41.413Z,98202.09
2022-12-22T01:28:35.785Z,98196.25
2022-12-22T01:31:35.948Z,98196.75
2022-12-22T01:34:22.348Z,98183.56
2022-12-22T01:37:07.775Z,98187.75
2022-12-22T01:39:53.285Z,98186.75
2022-12-22T01:42:39.100Z,98188.28
2022-12-22T01:45:37.108Z,98189.13
2022-12-22T01:48:22.632Z,98182.25
2022-12-22T01:51:08.142Z,98180.94
2022-12-22T01:53:54.068Z,98181.78
2022-12-22T01:56:39.570Z,98182.47
2022-12-22T01:59:25.145Z,98176.28
2022-12-22T02:02:11.078Z,98184.66
2022-12-22T02:05:00.776Z,98178.47
2022-12-22T02:08:41.399Z,98182.50
2022-12-22T02:12:08.153Z,98182.63
2022-12-22T02:15:32.821Z,98178.13
2022-12-22T02:18:48.804Z,98177.16
2022-12-22T02:22:20.289Z,98154.47
2022-12-22T02:25:43.523Z,98132.72
2022-12-22T02:28:50.029Z,98179.81
2022-12-22T02:31:35.591Z,98179.81
2022-12-22T02:34:21.157Z,98185.13
2022-12-22T02:37:12.696Z,98176.47
2022-12-22T02:40:27.171Z,98148.03
2022-12-22T02:43:50.329Z,98165.31
2022-12-22T02:46:40.017Z,98165.50
2022-12-22T02:49:36.447Z,98169.16
2022-12-22T02:52:31.139Z,98157.28
2022-12-22T02:55:17.465Z,98160.16
2022-12-22T02:58:03.240Z,98164.13
2022-12-22T03:00:48.560Z,98183.81
2022-12-22T03:03:34.584Z,98179.47
2022-12-22T03:06:20.068Z,98178.81
2022-12-22T03:09:05.599Z,98175.94
2022-12-22T03:11:50.883Z,98177.78
2022-12-22T03:14:36.268Z,98179.59
2022-12-22T03:17:21.862Z,98183.97
2022-12-22T03:20:07.552Z,98169.28
2022-12-22T03:22:53.150Z,98157.75
2022-12-22T03:25:38.738Z,98164.44
2022-12-22T03:28:08.682Z,98152.94
2022-12-22T03:30:36.166Z,98151.44
2022-12-22T03:33:03.080Z,98132.72
2022-12-22T03:35:30.057Z,98154.44
2022-12-22T03:37:56.968Z,98147.38
2022-12-22T03:40:23.904Z,98157.09
2022-12-22T03:43:09.470Z,98148.09
2022-12-22T03:45:55.017Z,98144.91
2022-12-22T03:48:21.936Z,98145.75
2022-12-22T03:50:48.812Z,98137.38
2022-12-22T03:53:15.756Z,98138.22
2022-12-22T03:55:42.644Z,98129.56
2022-12-22T03:58:09.571Z,98133.72
2022-12-22T04:00:36.523Z,98133.06
2022-12-22T04:03:03.645Z,98117.47
2022-12-22T04:05:30.687Z,98128.84
2022-12-22T04:07:57.610Z,98138.66
2022-12-22T04:10:42.954Z,98144.84
2022-12-22T04:13:10.225Z,98149.84
2022-12-22T04:15:37.133Z,98140.00
2022-12-22T04:18:04.260Z,98139.19
2022-12-22T04:20:31.283Z,98126.28
2022-12-22T04:22:58.727Z,98146.34
2022-12-22T04:25:26.983Z,98142.69
2022-12-22T04:27:54.090Z,98137.34
2022-12-22T04:30:21.312Z,98124.31
2022-12-22T04:32:48.296Z,98135.53
2022-12-22T04:35:15.240Z,98092.91
2022-12-22T04:37:42.228Z,98100.94
2022-12-22T04:40:09.599Z,98132.53
2022-12-22T04:42:36.521Z,98131.34
2022-12-22T04:45:03.825Z,98096.75
2022-12-22T04:47:30.782Z,98093.41
2022-12-22T04:49:57.745Z,98130.69
2022-12-22T04:52:24.708Z,98127.84
2022-12-22T04:54:51.696Z,98099.13
2022-12-22T04:57:19.183Z,98119.03
2022-12-22T04:59:46.150Z,98105.69
2022-12-22T05:02:13.600Z,98099.66
2022-12-22T05:04:40.684Z,98114.88
2022-12-22T05:07:08.216Z,98082.59
2022-12-22T05:09:35.177Z,98119.72
2022-12-22T05:12:22.063Z,98080.63
2022-12-22T05:14:49.037Z,98118.06
2022-12-22T05:17:16.052Z,98088.28
2022-12-22T05:19:43.074Z,98100.84
2022-12-22T05:22:10.035Z,98106.03
2022-12-22T05:24:36.997Z,98104.22
2022-12-22T05:27:03.954Z,98112.38
2022-12-22T05:29:30.939Z,98098.41
2022-12-22T05:31:57.968Z,98086.34
2022-12-22T05:34:25.016Z,98097.38
2022-12-22T05:36:51.996Z,98098.41
2022-12-22T05:39:19.532Z,98068.00
2022-12-22T05:41:46.722Z,98086.03
2022-12-22T05:44:13.692Z,98069.84
2022-12-22T05:46:40.811Z,98080.53
2022-12-22T05:49:07.823Z,98081.72
2022-12-22T05:51:34.754Z,98084.09
2022-12-22T05:54:01.676Z,98084.88
2022-12-22T05:56:28.602Z,98078.91
2022-12-22T05:58:55.534Z,98069.06
2022-12-22T06:01:22.418Z,98067.72
2022-12-22T06:03:53.282Z,98063.53
2022-12-22T06:06:23.072Z,98072.03
2022-12-22T06:08:49.987Z,98076.69
2022-12-22T06:11:18.469Z,98080.34
2022-12-22T06:13:46.373Z,98085.66
2022-12-22T06:16:13.377Z,98080.97
2022-12-22T06:18:40.332Z,98080.44
2022-12-22T06:21:07.208Z,98080.94
2022-12-22T06:23:34.154Z,98096.41
2022-12-22T06:26:02.234Z,98089.88
2022-12-22T06:28:29.808Z,98091.34
2022-12-22T06:30:56.804Z,98089.16
2022-12-22T06:33:23.925Z,98085.66
2022-12-22T06:35:58.110Z,98084.53
2022-12-22T06:38:28.004Z,98085.66
2022-12-22T06:40:55.009Z,98087.19
2022-12-22T06:43:22.006Z,98081.16
2022-12-22T06:45:48.925Z,98079.84
2022-12-22T06:48:15.939Z,98077.03
2022-12-22T06:50:43.085Z,98071.34
2022-12-22T06:53:11.299Z,98075.88
2022-12-22T06:55:38.787Z,98073.19
2022-12-22T06:58:05.935Z,98080.34
2022-12-22T07:00:33.154Z,98074.22
2022-12-22T07:03:00.632Z,98065.53
2022-12-22T07:05:27.695Z,98069.53
2022-12-22T07:07:54.808Z,98053.19
2022-12-22T07:10:41.681Z,98055.38
2022-12-22T07:13:19.777Z,98051.22
2022-12-22T07:15:55.640Z,98048.38
2022-12-22T07:18:27.074Z,98041.91
2022-12-22T07:20:54.543Z,98050.56
2022-12-22T07:23:21.491Z,98035.91
2022-12-22T07:25:48.433Z,98044.25
2022-12-22T07:28:20.632Z,98041.31
2022-12-22T07:30:49.452Z,98037.00
2022-12-22T07:33:17.200Z,98045.56
2022-12-22T07:35:44.172Z,98042.75
2022-12-22T07:38:11.362Z,98049.78
2022-12-22T07:40:42.102Z,98035.75
2022-12-22T07:43:09.972Z,97995.38
2022-12-22T07:45:36.868Z,97973.03
2022-12-22T07:48:28.222Z,98028.44
2022-12-22T07:51:01.819Z,98012.75
2022-12-22T07:53:28.769Z,98011.44
2022-12-22T07:55:55.919Z,98001.44
2022-12-22T07:58:22.825Z,98001.44
2022-12-22T08:00:49.755Z,98001.44
2022-12-22T08:03:16.709Z,98018.09
2022-12-22T08:05:44.739Z,98008.25
2022-12-22T08:08:11.741Z,98005.09
2022-12-22T08:10:38.653Z,98003.25
2022-12-22T08:13:05.631Z,98014.75
2022-12-22T08:15:32.585Z,98011.09
2022-12-22T08:17:59.542Z,98001.09
2022-12-22T08:20:26.557Z,98016.75
2022-12-22T08:22:53.475Z,98008.44
2022-12-22T08:25:20.457Z,98012.59
2022-12-22T08:27:53.855Z,98007.75
2022-12-22T08:30:20.815Z,98012.41
2022-12-22T08:32:50.251Z,98012.41
2022-12-22T08:35:17.415Z,98015.41
2022-12-22T08:37:46.927Z,98014.06
2022-12-22T08:40:19.700Z,98012.56
2022-12-22T08:42:49.135Z,98016.91
2022-12-22T08:45:16.147Z,98004.88
2022-12-22T08:47:43.127Z,97996.03
2022-12-22T08:50:10.311Z,97999.34
2022-12-22T08:52:37.411Z,98004.00
2022-12-22T08:55:04.938Z,97982.50
2022-12-22T08:57:31.883Z,97995.19
2022-12-22T08:59:59.043Z,97988.00
2022-12-22T09:02:26.097Z,97984.16
2022-12-22T09:04:53.046Z,97992.00
2022-12-22T09:07:19.987Z,97980.50
2022-12-22T09:09:47.075Z,97987.69
2022-12-22T09:12:14.132Z,97994.34
2022-12-22T09:14:41.154Z,97995.03
2022-12-22T09:17:09.406Z,97979.00
2022-12-22T09:19:36.654Z,97972.13
2022-12-22T09:22:03.985Z,97959.28
2022-12-22T09:24:30.911Z,97948.56
2022-12-22T09:26:57.797Z,97945.91
2022-12-22T09:29:24.710Z,97930.56
2022-12-22T09:31:51.655Z,97936.22
2022-12-22T09:34:18.988Z,97931.84
2022-12-22T09:36:46.609Z,97936.47
2022-12-22T09:39:13.588Z,97924.41
2022-12-22T09:41:58.021Z,97917.38
2022-12-22T09:44:28.707Z,97914.59
2022-12-22T09:47:00.062Z,97911.53
2022-12-22T09:49:27.639Z,97897.09
2022-12-22T09:52:00.697Z,97887.72
2022-12-22T09:54:29.390Z,97892.28
2022-12-22T09:56:57.162Z,97893.91
2022-12-22T09:59:28.141Z,97897.81
2022-12-22T10:02:13.420Z,97902.72
2022-12-22T10:05:17.519Z,97891.59
2022-12-22T10:07:44.799Z,97884.00
2022-12-22T10:10:28.565Z,97890.78
2022-12-22T10:12:58.900Z,97884.22
2022-12-22T10:15:26.525Z,97885.88
2022-12-22T10:18:15.009Z,97890.16
2022-12-22T10:20:45.031Z,97893.28
2022-12-22T10:23:27.344Z,97885.72
2022-12-22T10:28:48.421Z,97862.38
2022-12-22T10:31:21.881Z,97864.13
2022-12-22T10:33:52.652Z,97854.22
2022-12-22T10:36:30.943Z,97857.19
2022-12-22T10:39:07.821Z,97859.50
2022-12-22T10:41:44.478Z,97851.06
2022-12-22T10:44:17.347Z,97860.59
2022-12-22T10:46:49.367Z,97851.50
2022-12-22T10:49:21.929Z,97853.00
2022-12-22T10:51:56.295Z,97847.47
2022-12-22T10:54:31.040Z,97847.38
2022-12-22T10:57:25.338Z,97838.22
2022-12-22T10:59:55.022Z,97829.34
2022-12-22T11:02:22.915Z,97820.72
2022-12-22T11:04:51.345Z,97818.31
2022-12-22T11:07:19.013Z,97815.53
2022-12-22T11:09:46.057Z,97817.91
2022-12-22T11:12:34.347Z,97815.94
2022-12-22T11:15:47.657Z,97816.19
2022-12-22T11:18:35.062Z,97808.88
2022-12-22T11:21:18.653Z,97804.34
2022-12-22T11:23:55.231Z,97796.81
2022-12-22T11:26:48.501Z,97800.66
2022-12-22T11:29:24.296Z,97795.97
2022-12-22T11:32:06.074Z,97794.00
2022-12-22T11:34:33.035Z,97786.91
2022-12-22T11:37:28.814Z,97790.44
2022-12-22T11:40:04.746Z,97785.25
2022-12-22T11:43:02.415Z,97791.63
2022-12-22T11:45:52.450Z,97780.47
2022-12-22T11:48:54.035Z,97776.94
2022-12-22T11:51:39.312Z,97773.38
2022-12-22T11:54:33.106Z,97769.56
2022-12-22T11:57:14.958Z,97770.06
2022-12-22T11:59:51.074Z,97773.72
2022-12-22T12:02:31.253Z,97771.41
2022-12-22T12:05:40.453Z,97768.53
2022-12-22T12:08:07.287Z,97751.25
2022-12-22T12:10:49.236Z,97755.19
2022-12-22T12:13:44.808Z,97754.19
2022-12-22T12:16:30.216Z,97755.91
2022-12-22T12:19:27.180Z,97749.41
2022-12-22T12:22:09.161Z,97748.13
2022-12-22T12:24:40.726Z,97753.13
2022-12-22T12:27:37.876Z,97750.59
2022-12-22T12:30:40.677Z,97736.22
2022-12-22T12:33:19.365Z,97725.06
2022-12-22T12:35:49.245Z,97736.44
2022-12-22T12:39:06.222Z,97731.63
2022-12-22T12:41:29.225Z,97736.16
2022-12-22T12:43:58.356Z,97730.97
2022-12-22T12:46:40.507Z,97737.50
2022-12-22T12:49:36.526Z,97734.75
2022-12-22T12:52:04.829Z,97726.38
2022-12-22T12:54:47.905Z,97733.97
2022-12-22T12:57:30.637Z,97735.19
2022-12-22T13:00:00.588Z,97739.88
2022-12-22T13:02:27.889Z,97739.50
2022-12-22T13:05:14.656Z,97745.41
2022-12-22T13:08:12.638Z,97747.59
2022-12-22T13:10:53.157Z,97717.19
2022-12-22T13:13:26.165Z,97738.00
2022-12-22T13:16:02.503Z,97731.63
2022-12-22T13:18:29.594Z,97729.34
2022-12-22T13:24:22.803Z,97724.47
2022-12-22T13:26:44.794Z,97712.22
2022-12-22T13:29:39.935Z,97729.88
2022-12-22T13:32:20.555Z,97726.09
2022-12-22T13:37:49.558Z,97730.75
2022-12-22T13:40:25.810Z,97724.31
2022-12-22T13:42:54.549Z,97712.66
2022-12-22T13:45:36.626Z,97726.06
2022-12-22T13:48:09.893Z,97728.75
2022-12-22T13:50:43.019Z,97711.56
2022-12-22T13:53:41.601Z,97716.38
2022-12-22T13:56:07.849Z,97704.75
2022-12-22T13:58:39.403Z,97706.03
2022-12-22T14:01:12.455Z,97710.81
2022-12-22T14:04:03.100Z,97700.28
2022-12-22T14:06:34.350Z,97690.53
2022-12-22T14:09:19.769Z,97693.59
2022-12-22T14:11:52.112Z,97696.38
2022-12-22T14:14:29.625Z,97694.91
2022-12-22T14:17:00.743Z,97687.34
2022-12-22T14:19:34.080Z,97688.38
2022-12-22T14:22:08.667Z,97670.09
2022-12-22T14:24:43.585Z,97684.75
2022-12-22T14:27:24.022Z,97682.47
2022-12-22T14:29:51.362Z,97682.84
2022-12-22T14:32:57.876Z,97689.66
2022-12-22T14:35:31.369Z,97683.84
2022-12-22T14:38:07.169Z,97687.75
2022-12-22T14:40:42.884Z,97683.13
2022-12-22T14:43:18.797Z,97686.44
2022-12-22T14:45:49.013Z,97682.09
2022-12-22T14:48:33.314Z,97684.31
2022-12-22T14:51:02.272Z,97679.34
2022-12-22T14:53:44.732Z,97678.38
2022-12-22T14:56:15.863Z,97676.81
2022-12-22T14:58:44.721Z,97677.34
2022-12-22T15:01:28.765Z,97670.09
2022-12-22T15:04:01.097Z,97673.72
2022-12-22T15:06:28.045Z,97682.84
2022-12-22T15:09:12.160Z,97678.09
2022-12-22T15:11:46.960Z,97682.84
2022-12-22T15:14:17.763Z,97685.41
2022-12-22T15:16:46.202Z,97676.03
2022-12-22T15:19:16.625Z,97675.06
2022-12-22T15:21:43.657Z,97667.47
2022-12-22T15:24:16.902Z,97687.53
2022-12-22T15:26:44.898Z,97677.56
2022-12-22T15:29:12.363Z,97683.25
2022-12-22T15:31:40.928Z,97680.75
2022-12-22T15:34:16.891Z,97626.97
2022-12-22T15:36:43.802Z,97661.91
2022-12-22T15:39:18.315Z,97651.56
2022-12-22T15:41:45.936Z,97660.59
2022-12-22T15:44:13.328Z,97655.94
2022-12-22T15:46:43.518Z,97662.22
2022-12-22T15:49:24.055Z,97675.59
2022-12-22T15:51:55.965Z,97655.94
2022-12-22T15:54:23.434Z,97668.41
2022-12-22T15:56:52.679Z,97674.94
2022-12-22T15:59:29.704Z,97672.38
2022-12-22T16:02:01.317Z,97682.38
2022-12-22T16:04:29.255Z,97672.00
2022-12-22T16:06:57.287Z,97675.66
2022-12-22T16:09:27.816Z,97685.19
2022-12-22T16:11:55.235Z,97670.31
2022-12-22T16:14:23.192Z,97673.66
2022-12-22T16:16:50.567Z,97669.31
2022-12-22T16:19:19.372Z,97676.97
2022-12-22T16:21:50.865Z,97667.47
2022-12-22T16:24:33.431Z,97664.28
2022-12-22T16:27:01.580Z,97658.47
2022-12-22T16:29:28.686Z,97661.78
2022-12-22T16:32:17.601Z,97651.09
2022-12-22T16:34:45.163Z,97661.91
2022-12-22T16:37:12.138Z,97661.06
2022-12-22T16:39:39.120Z,97663.06
2022-12-22T16:42:12.479Z,97661.91
2022-12-22T16:44:47.980Z,97661.72
2022-12-22T16:47:22.750Z,97669.03
2022-12-22T16:49:50.564Z,97666.72
2022-12-22T16:52:20.535Z,97666.19
2022-12-22T16:54:52.609Z,97671.53
2022-12-22T16:57:19.922Z,97674.66
2022-12-22T16:59:47.150Z,97668.19
2022-12-22T17:02:20.689Z,97663.50
2022-12-22T17:04:48.170Z,97668.94
2022-12-22T17:07:15.281Z,97666.94
2022-12-22T17:09:53.069Z,97662.59
2022-12-22T17:12:27.778Z,97656.88
2022-12-22T17:14:56.323Z,97657.72
2022-12-22T17:17:30.835Z,97659.22
2022-12-22T17:19:58.951Z,97642.69
2022-12-22T17:22:31.562Z,97651.19
2022-12-22T17:25:02.401Z,97649.53
2022-12-22T17:27:33.879Z,97639.56
2022-12-22T17:30:05.737Z,97653.88
2022-12-22T17:32:32.666Z,97648.16
2022-12-22T17:34:59.562Z,97654.13
2022-12-22T17:37:26.815Z,97645.13
2022-12-22T17:40:00.435Z,97639.59
2022-12-22T17:42:27.584Z,97639.78
2022-12-22T17:44:54.555Z,97629.44
2022-12-22T17:47:30.569Z,97637.94
2022-12-22T17:49:59.324Z,97631.75
2022-12-22T17:52:28.307Z,97630.75
2022-12-22T17:54:55.569Z,97631.41
2022-12-22T17:57:33.656Z,97622.56
2022-12-22T18:00:00.982Z,97633.03
2022-12-22T18:02:28.234Z,97621.72
2022-12-22T18:04:55.344Z,97627.06
2022-12-22T18:07:24.960Z,97630.38
2022-12-22T18:09:59.194Z,97620.72
2022-12-22T18:12:26.306Z,97612.88
2022-12-22T18:14:53.536Z,97616.00
2022-12-22T18:17:26.221Z,97626.69
2022-12-22T18:19:55.524Z,97590.75
2022-12-22T18:22:28.596Z,97607.81
2022-12-22T18:24:56.890Z,97618.97
2022-12-22T18:27:23.945Z,97601.63
2022-12-22T18:29:50.962Z,97611.13
2022-12-22T18:32:26.266Z,97610.13
2022-12-22T18:34:54.581Z,97614.06
2022-12-22T18:37:21.703Z,97610.78
2022-12-22T18:39:48.683Z,97599.25
2022-12-22T18:42:21.743Z,97597.19
2022-12-22T18:44:49.355Z,97595.19
2022-12-22T18:47:16.577Z,97590.56
2022-12-22T18:49:44.088Z,97601.53
2022-12-22T18:52:25.015Z,97599.25
2022-12-22T18:54:51.908Z,97600.25
2022-12-22T18:57:20.455Z,97603.09
2022-12-22T18:59:49.040Z,97604.94
2022-12-22T19:02:23.722Z,97596.28
2022-12-22T19:04:51.009Z,97577.84
2022-12-22T19:07:20.542Z,97582.34
2022-12-22T19:09:47.851Z,97584.72
2022-12-22T19:12:17.937Z,97586.78
2022-12-22T19:14:47.978Z,97587.41
2022-12-22T19:17:19.478Z,97597.25
2022-12-22T19:19:46.456Z,97602.50
2022-12-22T19:22:14.413Z,97605.53
2022-12-22T19:24:45.741Z,97606.19
2022-12-22T19:27:23.229Z,97597.88
2022-12-22T19:29:54.719Z,97603.06
2022-12-22T19:32:30.392Z,97605.72
2022-12-22T19:34:57.382Z,97607.97
2022-12-22T19:37:24.445Z,97590.47
2022-12-22T19:39:51.378Z,97597.13
2022-12-22T19:42:22.378Z,97597.13
2022-12-22T19:44:49.604Z,97595.06
2022-12-22T19:47:24.617Z,97592.47
2022-12-22T19:49:51.588Z,97598.16
2022-12-22T19:52:18.494Z,97607.47
2022-12-22T19:54:45.372Z,97604.44
2022-12-22T19:57:22.699Z,97607.88
2022-12-22T19:59:52.552Z,97612.69
2022-12-22T20:02:22.601Z,97598.59
2022-12-22T20:04:50.064Z,97598.25
2022-12-22T20:07:18.970Z,97598.06
2022-12-22T20:09:46.030Z,97609.41
2022-12-22T20:12:35.895Z,97616.88
2022-12-22T20:15:20.017Z,97604.53
2022-12-22T20:17:49.397Z,97602.84
2022-12-22T20:20:22.430Z,97609.53
2022-12-22T20:22:55.955Z,97595.88
2022-12-22T20:25:28.126Z,97600.69
2022-12-22T20:27:56.854Z,97597.16
2022-12-22T20:30:27.085Z,97608.69
2022-12-22T20:32:54.772Z,97598.19
2022-12-22T20:35:25.036Z,97603.88
2022-12-22T20:37:51.951Z,97598.72
2022-12-22T20:40:31.315Z,97602.22
2022-12-22T20:42:58.746Z,97607.72
2022-12-22T20:45:30.166Z,97608.75
2022-12-22T20:47:59.948Z,97625.59
2022-12-22T20:50:29.986Z,97615.94
2022-12-22T20:52:57.427Z,97616.94
2022-12-22T20:55:27.339Z,97615.44
2022-12-22T20:57:54.944Z,97611.31
2022-12-22T21:00:25.675Z,97594.06
2022-12-22T21:02:53.897Z,97608.72
2022-12-22T21:05:21.414Z,97622.25
2022-12-22T21:07:49.587Z,97614.41
2022-12-22T21:10:21.919Z,97617.81
2022-12-22T21:12:49.975Z,97617.81
2022-12-22T21:15:21.538Z,97611.63
2022-12-22T21:17:54.423Z,97614.28
2022-12-22T21:20:27.995Z,97610.78
2022-12-22T21:22:55.011Z,97610.78
2022-12-22T21:25:23.321Z,97611.78
2022-12-22T21:27:51.907Z,97615.75
2022-12-22T21:30:31.032Z,97613.09
2022-12-22T21:32:58.648Z,97619.94
2022-12-22T21:35:31.594Z,97608.88
2022-12-22T21:37:59.305Z,97610.38
2022-12-22T21:40:28.986Z,97608.06
2022-12-22T21:42:56.977Z,97598.38
2022-12-22T21:45:30.995Z,97588.72
2022-12-22T21:48:01.204Z,97594.91
2022-12-22T21:50:33.119Z,97600.88
2022-12-22T21:53:00.692Z,97595.53
2022-12-22T21:55:31.825Z,97593.22
2022-12-22T21:57:59.917Z,97607.03
2022-12-22T22:00:28.420Z,97600.03
2022-12-22T22:02:56.450Z,97609.72
2022-12-22T22:05:35.386Z,97605.38
2022-12-22T22:08:04.615Z,97613.69
2022-12-22T22:10:38.096Z,97610.00
2022-12-22T22:13:05.938Z,97619.97
2022-12-22T22:15:33.853Z,97608.28
2022-12-22T22:18:06.561Z,97605.59
2022-12-22T22:20:34.509Z,97594.63
2022-12-22T22:23:01.841Z,97607.94
2022-12-22T22:25:28.936Z,97606.06
2022-12-22T22:27:59.978Z,97607.72
2022-12-22T22:30:27.699Z,97612.25
2022-12-22T22:32:55.735Z,97618.09
2022-12-22T22:35:24.561Z,97604.53
2022-12-22T22:37:51.873Z,97614.56
2022-12-22T22:40:23.819Z,97611.41
2022-12-22T22:42:50.755Z,97601.00
2022-12-22T22:45:23.511Z,97602.81
2022-12-22T22:47:51.644Z,97600.22
2022-12-22T22:50:20.775Z,97602.00
2022-12-22T22:52:48.461Z,97611.94
2022-12-22T22:55:15.757Z,97608.28
2022-12-22T22:57:43.358Z,97606.50
2022-12-22T23:00:12.850Z,97602.66
2022-12-22T23:02:39.976Z,97604.78
2022-12-22T23:05:07.812Z,97621.75
2022-12-22T23:07:36.053Z,97617.22
2022-12-22T23:10:04.047Z,97612.34
2022-12-22T23:12:31.252Z,97611.16
2022-12-22T23:14:58.581Z,97615.31
2022-12-22T23:17:27.643Z,97577.59
2022-12-22T23:19:54.691Z,97610.06
2022-12-22T23:22:21.639Z,97617.06
2022-12-22T23:24:49.532Z,97613.19
2022-12-22T23:27:17.693Z,97617.69
2022-12-22T23:29:44.693Z,97605.72
2022-12-22T23:32:11.610Z,97611.97
2022-12-22T23:34:38.532Z,97611.97
2022-12-22T23:37:05.536Z,97617.69
2022-12-22T23:39:32.484Z,97606.84
2022-12-22T23:41:59.442Z,97623.88
2022-12-22T23:44:26.899Z,97631.06
2022-12-22T23:46:53.938Z,97609.22
2022-12-22T23:49:20.992Z,97616.88
2022-12-22T23:51:47.962Z,97611.06
2022-12-22T23:54:14.866Z,97615.59
2022-12-22T23:56:41.959Z,97627.28
2022-12-22T23:59:08.939Z,97620.31
